createdAt,value
2022-08-09T00:04:37.184Z,102430.41
2022-08-09T00:09:54.176Z,102423.25
2022-08-09T00:15:13.903Z,102425.31
2022-08-09T00:20:31.540Z,102426.06
2022-08-09T00:25:51.902Z,102431.47
2022-08-09T00:31:09.344Z,102427.09
2022-08-09T00:36:42.899Z,102430.47
2022-08-09T00:44:10.392Z,102432.50
2022-08-09T00:47:39.588Z,102428.16
2022-08-09T00:52:55.903Z,102433.03
2022-08-09T00:58:14.668Z,102435.59
2022-08-09T01:03:45.630Z,102434.06
2022-08-09T01:09:01.943Z,102430.50
2022-08-09T01:14:16.945Z,102436.13
2022-08-09T01:19:42.475Z,102435.59
2022-08-09T01:25:07.202Z,102432.81
2022-08-09T01:30:33.585Z,102432.81
2022-08-09T01:35:51.800Z,102434.59
2022-08-09T01:41:08.193Z,102433.84
2022-08-09T01:46:26.469Z,102435.09
2022-08-09T01:51:44.321Z,102432.31
2022-08-09T01:57:08.139Z,102432.09
2022-08-09T02:02:24.251Z,102438.97
2022-08-09T02:08:40.465Z,102429.78
2022-08-09T02:13:25.877Z,102438.22
2022-08-09T02:18:52.203Z,102435.91
2022-08-09T02:24:07.959Z,102429.53
2022-08-09T02:29:23.872Z,102428.78
2022-08-09T02:34:51.979Z,102440.56
2022-08-09T02:40:11.958Z,102430.59
2022-08-09T02:45:28.827Z,102431.16
2022-08-09T02:50:44.104Z,102426.00
2022-08-09T02:56:01.128Z,102419.63
2022-08-09T03:01:21.835Z,102422.97
2022-08-09T03:06:51.985Z,102415.06
2022-08-09T03:12:11.091Z,102417.13
2022-08-09T03:17:28.890Z,102419.94
2022-08-09T03:22:43.899Z,102425.53
2022-08-09T03:27:58.933Z,102419.69
2022-08-09T03:33:18.905Z,102415.34
2022-08-09T03:38:35.174Z,102415.34
2022-08-09T03:44:08.272Z,102426.56
2022-08-09T03:49:24.222Z,102417.38
2022-08-09T03:54:48.162Z,102413.06
2022-08-09T04:00:06.863Z,102417.94
2022-08-09T04:05:27.975Z,102417.69
2022-08-09T04:10:44.190Z,102437.34
2022-08-09T04:16:20.007Z,102430.22
2022-08-09T04:21:40.171Z,102429.97
2022-08-09T04:26:56.191Z,102438.38
2022-08-09T04:32:11.872Z,102441.69
2022-08-09T04:37:45.713Z,102441.47
2022-08-09T04:43:01.896Z,102449.91
2022-08-09T04:48:18.875Z,102453.22
2022-08-09T04:53:34.949Z,102461.38
2022-08-09T04:58:50.860Z,102469.03
2022-08-09T05:04:06.252Z,102469.56
2022-08-09T05:09:23.235Z,102468.81
2022-08-09T05:14:41.428Z,102472.91
2022-08-09T05:19:58.201Z,102473.66
2022-08-09T05:25:15.158Z,102477.75
2022-08-09T05:30:31.326Z,102472.66
2022-08-09T05:35:50.106Z,102483.09
2022-08-09T05:41:06.259Z,102491.28
2022-08-09T05:46:28.950Z,102491.03
2022-08-09T05:51:46.064Z,102496.44
2022-08-09T05:57:01.923Z,102495.38
2022-08-09T06:02:22.222Z,102498.47
2022-08-09T06:07:37.965Z,102506.34
2022-08-09T06:12:59.338Z,102504.31
2022-08-09T06:18:27.978Z,102507.13
2022-08-09T06:23:58.918Z,102509.94
2022-08-09T06:29:17.181Z,102516.06
2022-08-09T06:34:36.980Z,102508.91
2022-08-09T06:40:00.024Z,102503.28
2022-08-09T06:46:05.040Z,102522.94
2022-08-09T06:50:52.923Z,102522.94
2022-08-09T06:56:07.960Z,102515.03
2022-08-09T07:01:27.468Z,102527.78
2022-08-09T07:06:53.111Z,102535.72
2022-08-09T07:12:17.528Z,102526.25
2022-08-09T07:17:39.704Z,102538.00
2022-08-09T07:22:56.092Z,102530.59
2022-08-09T07:28:19.409Z,102540.28
2022-08-09T07:33:52.621Z,102529.81
2022-08-09T07:39:11.721Z,102535.22
2022-08-09T07:44:51.973Z,102537.25
2022-08-09T07:50:09.308Z,102529.06
2022-08-09T07:55:24.913Z,102524.97
2022-08-09T08:00:58.759Z,102520.13
2022-08-09T08:06:21.257Z,102530.34
2022-08-09T08:12:24.707Z,102527.31
2022-08-09T08:17:35.455Z,102524.97
2022-08-09T08:23:01.743Z,102530.34
2022-08-09T08:28:31.964Z,102527.53
2022-08-09T08:33:52.653Z,102532.38
2022-08-09T08:39:10.619Z,102546.41
2022-08-09T08:44:28.961Z,102549.22
2022-08-09T08:49:46.804Z,102548.44
2022-08-09T08:55:05.941Z,102544.88
2022-08-09T09:00:30.223Z,102544.13
2022-08-09T09:06:00.909Z,102546.94
2022-08-09T09:11:20.184Z,102544.38
2022-08-09T09:16:36.027Z,102541.78
2022-08-09T09:21:51.261Z,102543.09
2022-08-09T09:27:07.020Z,102543.84
2022-08-09T09:32:34.283Z,102538.97
2022-08-09T09:37:51.294Z,102543.09
2022-08-09T09:43:06.971Z,102545.34
2022-08-09T09:48:28.950Z,102548.44
2022-08-09T09:53:57.532Z,102550.72
2022-08-09T09:59:17.023Z,102540.47
2022-08-09T10:04:33.944Z,102538.44
2022-08-09T10:09:48.939Z,102542.78
2022-08-09T10:15:17.313Z,102547.09
2022-08-09T10:20:44.738Z,102538.94
2022-08-09T10:26:06.266Z,102538.94
2022-08-09T10:36:58.900Z,102526.69
2022-08-09T10:42:15.954Z,102531.00
2022-08-09T10:48:16.369Z,102529.22
2022-08-09T10:53:10.273Z,102517.47
2022-08-09T10:58:25.930Z,102514.13
2022-08-09T11:03:51.411Z,102513.59
2022-08-09T11:09:15.839Z,102511.56
2022-08-09T11:15:09.982Z,102510.78
2022-08-09T11:20:32.931Z,102507.50
2022-08-09T11:25:49.402Z,102500.59
2022-08-09T11:31:06.828Z,102505.69
2022-08-09T11:36:30.420Z,102483.97
2022-08-09T11:41:53.650Z,102489.06
2022-08-09T11:47:14.427Z,102477.31
2022-08-09T11:53:16.564Z,102481.69
2022-08-09T11:58:06.062Z,102470.66
2022-08-09T12:03:55.000Z,102474.47
2022-08-09T12:08:58.019Z,102471.91
2022-08-09T12:14:36.830Z,102468.06
2022-08-09T12:19:50.932Z,102475.44
2022-08-09T12:25:15.194Z,102462.13
2022-08-09T12:30:36.287Z,102464.69
2022-08-09T12:35:54.308Z,102449.34
2022-08-09T12:41:13.907Z,102433.50
2022-08-09T12:46:29.251Z,102443.47
2022-08-09T12:52:00.218Z,102441.66
2022-08-09T12:57:18.975Z,102441.88
2022-08-09T13:02:34.119Z,102434.97
2022-08-09T13:07:51.757Z,102436.53
2022-08-09T13:13:10.877Z,102431.13
2022-08-09T13:18:27.263Z,102437.72
2022-08-09T13:24:16.694Z,102432.09
2022-08-09T13:29:17.946Z,102426.22
2022-08-09T13:34:33.998Z,102426.97
2022-08-09T13:41:50.418Z,102404.22
2022-08-09T13:45:32.179Z,102403.69
2022-08-09T13:50:59.914Z,102394.75
2022-08-09T13:56:14.951Z,102384.47
2022-08-09T14:02:01.381Z,102393.13
2022-08-09T14:07:10.335Z,102391.34
2022-08-09T14:12:26.041Z,102396.44
2022-08-09T14:18:19.363Z,102393.09
2022-08-09T14:23:22.951Z,102390.28
2022-08-09T14:28:52.257Z,102393.31
2022-08-09T14:34:08.305Z,102383.63
2022-08-09T14:39:47.536Z,102385.13
2022-08-09T14:45:00.954Z,102387.41
2022-08-09T14:50:17.539Z,102383.28
2022-08-09T14:55:33.252Z,102378.44
2022-08-09T15:00:51.054Z,102378.44
2022-08-09T15:06:06.989Z,102375.88
2022-08-09T15:11:23.920Z,102377.41
2022-08-09T15:16:39.264Z,102364.09
2022-08-09T15:22:02.105Z,102377.63
2022-08-09T15:27:17.691Z,102372.03
2022-08-09T15:32:34.016Z,102362.50
2022-08-09T15:37:56.981Z,102368.13
2022-08-09T15:43:24.916Z,102362.00
2022-08-09T15:49:20.924Z,102357.63
2022-08-09T15:54:35.533Z,102355.38
2022-08-09T15:59:57.929Z,102351.03
2022-08-09T16:05:12.943Z,102348.22
2022-08-09T16:10:55.912Z,102341.31
2022-08-09T16:16:11.244Z,102339.78
2022-08-09T16:21:34.883Z,102340.56
2022-08-09T16:26:51.030Z,102335.47
2022-08-09T16:32:18.804Z,102336.97
2022-08-09T16:37:55.990Z,102341.31
2022-08-09T16:43:12.020Z,102338.50
2022-08-09T16:48:39.218Z,102339.25
2022-08-09T16:54:26.259Z,102330.06
2022-08-09T16:59:35.924Z,102334.41
2022-08-09T17:04:59.198Z,102343.09
2022-08-09T17:10:16.327Z,102345.91
2022-08-09T17:16:00.290Z,102337.47
2022-08-09T17:21:08.302Z,102348.16
2022-08-09T17:26:31.266Z,102352.50
2022-08-09T17:31:49.033Z,102348.91
2022-08-09T17:37:05.355Z,102354.00
2022-08-09T17:42:41.962Z,102358.13
2022-08-09T17:48:02.689Z,102359.09
2022-08-09T17:53:22.445Z,102363.44
2022-08-09T17:58:38.242Z,102367.03
2022-08-09T18:03:57.962Z,102366.47
2022-08-09T18:09:13.962Z,102363.66
2022-08-09T18:14:32.254Z,102361.41
2022-08-09T18:20:57.359Z,102374.38
2022-08-09T18:25:50.679Z,102373.09
2022-08-09T18:30:58.287Z,102372.56
2022-08-09T18:36:32.155Z,102373.31
2022-08-09T18:41:52.482Z,102370.50
2022-08-09T18:47:15.926Z,102374.88
2022-08-09T18:52:34.980Z,102369.97
2022-08-09T18:57:50.942Z,102367.94
2022-08-09T19:03:12.313Z,102372.28
2022-08-09T19:08:28.256Z,102369.47
2022-08-09T19:13:51.211Z,102375.09
2022-08-09T19:19:25.725Z,102384.28
2022-08-09T19:25:09.852Z,102391.19
2022-08-09T19:30:22.426Z,102387.63
2022-08-09T19:35:58.263Z,102389.66
2022-08-09T19:41:14.004Z,102395.28
2022-08-09T19:46:50.913Z,102383.03
2022-08-09T19:52:09.025Z,102392.53
2022-08-09T19:57:27.722Z,102396.13
2022-08-09T20:04:12.176Z,102402.28
2022-08-09T20:08:24.990Z,102407.16
2022-08-09T20:13:54.245Z,102409.97
2022-08-09T20:19:49.047Z,102402.00
2022-08-09T20:24:53.312Z,102406.13
2022-08-09T20:30:10.040Z,102413.56
2022-08-09T20:35:24.962Z,102420.50
2022-08-09T20:40:41.140Z,102419.75
2022-08-09T20:46:33.140Z,102428.66
2022-08-09T20:51:41.195Z,102428.44
2022-08-09T20:56:58.014Z,102433.84
2022-08-09T21:02:17.762Z,102437.94
2022-08-09T21:07:40.726Z,102440.75
2022-08-09T21:13:00.995Z,102441.28
2022-08-09T21:18:25.184Z,102435.41
2022-08-09T21:23:51.279Z,102443.06
2022-08-09T21:29:11.709Z,102444.38
2022-08-09T21:34:29.693Z,102435.72
2022-08-09T21:39:45.346Z,102437.03
2022-08-09T21:45:05.013Z,102426.28
2022-08-09T21:50:33.871Z,102435.97
2022-08-09T21:55:53.867Z,102434.47
2022-08-09T22:01:11.929Z,102428.88
2022-08-09T22:06:42.032Z,102434.25
2022-08-09T22:12:17.548Z,102436.31
2022-08-09T22:17:33.115Z,102430.69
2022-08-09T22:22:49.033Z,102428.91
2022-08-09T22:28:07.224Z,102426.13
2022-08-09T22:33:22.991Z,102432.25
2022-08-09T22:38:53.286Z,102420.03
2022-08-09T22:44:09.670Z,102431.28
2022-08-09T22:49:24.710Z,102428.47
2022-08-09T22:54:46.849Z,102426.94
2022-08-09T23:00:03.237Z,102413.41
2022-08-09T23:05:19.330Z,102413.41
2022-08-09T23:10:40.370Z,102421.06
2022-08-09T23:16:02.873Z,102425.16
2022-08-09T23:21:24.460Z,102428.50
2022-08-09T23:26:41.031Z,102434.66
2022-08-09T23:31:55.988Z,102428.25
2022-08-09T23:37:11.069Z,102423.16
2022-08-09T23:42:25.955Z,102416.03
2022-08-09T23:47:40.986Z,102418.81
2022-08-09T23:52:56.058Z,102415.81
2022-08-09T23:58:27.733Z,102412.22
